createdAt,value
2017-04-28T00:00:12.506Z,73.3
2017-04-28T00:00:53.380Z,73.49
2017-04-28T00:01:34.259Z,73.21
2017-04-28T00:02:15.138Z,73.11
2017-04-28T00:02:56.025Z,73.02
2017-04-28T00:03:36.894Z,73.11
2017-04-28T00:04:17.767Z,72.74
2017-04-28T00:04:58.658Z,73.3
2017-04-28T00:05:43.063Z,73.02
2017-04-28T00:06:23.927Z,73.11
2017-04-28T00:07:04.816Z,73.49
2017-04-28T00:07:45.699Z,73.69
2017-04-28T00:08:26.577Z,73.69
2017-04-28T00:09:07.444Z,73.88
2017-04-28T00:09:48.317Z,73.59
2017-04-28T00:10:29.179Z,73.78
2017-04-28T00:11:10.060Z,73.59
2017-04-28T00:11:50.945Z,73.69
2017-04-28T00:12:31.830Z,73.69
2017-04-28T00:13:12.700Z,74.07
2017-04-28T00:13:53.572Z,74.16
2017-04-28T00:14:34.458Z,74.16
2017-04-28T00:15:15.339Z,73.97
2017-04-28T00:15:56.233Z,73.97
2017-04-28T00:16:37.091Z,74.54
2017-04-28T00:17:17.940Z,74.73
2017-04-28T00:17:58.815Z,74.54
2017-04-28T00:18:39.653Z,74.73
2017-04-28T00:19:20.547Z,74.98
2017-04-28T00:20:01.394Z,74.63
2017-04-28T00:20:42.276Z,74.63
2017-04-28T00:21:23.163Z,74.73
2017-04-28T00:22:04.029Z,74.35
2017-04-28T00:22:44.892Z,74.16
2017-04-28T00:23:25.776Z,73.84
2017-04-28T00:24:06.663Z,74.07
2017-04-28T00:24:47.550Z,74.26
2017-04-28T00:25:28.413Z,74.54
2017-04-28T00:26:09.284Z,74.82
2017-04-28T00:26:50.142Z,74.63
2017-04-28T00:27:30.997Z,75.21
2017-04-28T00:28:11.869Z,75.3
2017-04-28T00:28:52.727Z,75.21
2017-04-28T00:29:33.600Z,75.02
2017-04-28T00:30:14.494Z,75.4
2017-04-28T00:30:55.363Z,75.49
2017-04-28T00:31:36.230Z,75.21
2017-04-28T00:32:17.105Z,75.02
2017-04-28T00:32:57.965Z,75.78
2017-04-28T00:33:38.853Z,76.03
2017-04-28T00:34:19.688Z,76.21
2017-04-28T00:35:00.560Z,76.88
2017-04-28T00:35:41.407Z,76.21
2017-04-28T00:36:22.267Z,76.78
2017-04-28T00:37:03.149Z,76.03
2017-04-28T00:37:44.002Z,76.5
2017-04-28T00:38:24.875Z,76.12
2017-04-28T00:39:05.771Z,76.4
2017-04-28T00:39:46.630Z,75.45
2017-04-28T00:40:27.506Z,75.64
2017-04-28T00:41:08.375Z,75.84
2017-04-28T00:41:49.258Z,75.64
2017-04-28T00:42:30.147Z,75.64
2017-04-28T00:43:11.012Z,75.84
2017-04-28T00:43:51.912Z,75.74
2017-04-28T00:44:32.783Z,75.74
2017-04-28T00:45:13.626Z,75.55
2017-04-28T00:45:54.573Z,75.93
2017-04-28T00:46:35.451Z,76.12
2017-04-28T00:47:16.333Z,76.03
2017-04-28T00:47:57.214Z,75.74
2017-04-28T00:48:38.106Z,75.55
2017-04-28T00:49:18.966Z,75.84
2017-04-28T00:49:59.840Z,75.74
2017-04-28T00:50:40.690Z,76.21
2017-04-28T00:51:21.549Z,76.5
2017-04-28T00:52:02.415Z,76.12
2017-04-28T00:52:43.303Z,76.31
2017-04-28T00:53:24.180Z,76.4
2017-04-28T00:54:05.050Z,76.12
2017-04-28T00:54:45.920Z,76.31
2017-04-28T00:55:26.807Z,76.5
2017-04-28T00:56:07.675Z,76.5
2017-04-28T00:56:48.520Z,76.5
2017-04-28T00:57:29.417Z,76.4
2017-04-28T00:58:10.324Z,76.78
2017-04-28T00:58:51.170Z,76.4
2017-04-28T00:59:32.069Z,76.31
2017-04-28T01:00:12.927Z,76.78
2017-04-28T01:00:53.789Z,76.78
2017-04-28T01:01:34.684Z,77.07
2017-04-28T01:02:15.527Z,76.78
2017-04-28T01:02:56.401Z,76.12
2017-04-28T01:03:37.293Z,75.07
2017-04-28T01:04:18.173Z,74.88
2017-04-28T01:04:59.019Z,75.07
2017-04-28T01:05:39.898Z,75.07
2017-04-28T01:06:20.761Z,75.64
2017-04-28T01:07:01.631Z,75.26
2017-04-28T01:07:42.523Z,75.36
2017-04-28T01:08:23.430Z,75.36
2017-04-28T01:09:04.313Z,75.64
2017-04-28T01:09:45.208Z,75.84
2017-04-28T01:10:26.071Z,76.03
2017-04-28T01:11:06.944Z,76.69
2017-04-28T01:11:47.815Z,76.4
2017-04-28T01:12:28.713Z,77.17
2017-04-28T01:13:09.602Z,77.45
2017-04-28T01:13:50.461Z,77.45
2017-04-28T01:14:31.335Z,77.36
2017-04-28T01:15:12.221Z,77.07
2017-04-28T01:15:53.105Z,77.07
2017-04-28T01:16:34.002Z,77.17
2017-04-28T01:17:14.830Z,76.69
2017-04-28T01:17:55.703Z,77.26
2017-04-28T01:18:36.578Z,77.45
2017-04-28T01:19:17.437Z,77.26
2017-04-28T01:19:58.337Z,77.17
2017-04-28T01:20:39.213Z,77.45
2017-04-28T01:21:20.095Z,77.36
2017-04-28T01:22:00.973Z,78.21
2017-04-28T01:22:41.837Z,78.11
2017-04-28T01:23:22.716Z,78.02
2017-04-28T01:24:03.604Z,77.45
2017-04-28T01:24:44.463Z,77.07
2017-04-28T01:25:25.373Z,77.36
2017-04-28T01:26:06.256Z,77.83
2017-04-28T01:26:47.166Z,77.92
2017-04-28T01:27:28.036Z,77.83
2017-04-28T01:28:08.924Z,77.83
2017-04-28T01:28:49.816Z,77.92
2017-04-28T01:29:31.406Z,77.92
2017-04-28T01:30:12.299Z,78.11
2017-04-28T01:30:53.185Z,78.4
2017-04-28T01:31:34.075Z,78.11
2017-04-28T01:32:14.949Z,78.11
2017-04-28T01:32:55.818Z,78.3
2017-04-28T01:33:36.710Z,78.64
2017-04-28T01:34:17.594Z,79.31
2017-04-28T01:34:58.476Z,78.55
2017-04-28T01:35:39.331Z,79.03
2017-04-28T01:36:20.208Z,78.55
2017-04-28T01:37:01.077Z,78.83
2017-04-28T01:37:41.963Z,79.5
2017-04-28T01:38:22.820Z,79.5
2017-04-28T01:39:03.699Z,79.69
2017-04-28T01:39:44.581Z,79.5
2017-04-28T01:40:25.465Z,79.69
2017-04-28T01:41:06.360Z,79.69
2017-04-28T01:41:47.253Z,79.6
2017-04-28T01:42:28.128Z,79.6
2017-04-28T01:43:09.006Z,79.5
2017-04-28T01:43:49.874Z,79.5
2017-04-28T01:44:30.758Z,80.07
2017-04-28T01:46:29.494Z,79.12
2017-04-28T01:47:10.372Z,79.12
2017-04-28T01:47:51.364Z,78.69
2017-04-28T01:48:32.238Z,78.17
2017-04-28T01:49:13.116Z,78.11
2017-04-28T01:49:53.994Z,78.3
2017-04-28T01:50:34.963Z,78.17
2017-04-28T01:51:15.837Z,78.21
2017-04-28T01:51:56.716Z,77.83
2017-04-28T01:52:37.588Z,78.4
2017-04-28T01:53:18.459Z,78.3
2017-04-28T01:53:59.334Z,78.11
2017-04-28T01:54:40.200Z,78.11
2017-04-28T01:55:21.089Z,78.3
2017-04-28T01:56:01.953Z,78.21
2017-04-28T01:56:42.836Z,78.69
2017-04-28T01:57:23.711Z,78.4
2017-04-28T01:58:04.576Z,79.31
2017-04-28T01:58:45.448Z,79.22
2017-04-28T01:59:26.370Z,79.12
2017-04-28T02:00:07.240Z,79.03
2017-04-28T02:00:48.116Z,78.93
2017-04-28T02:01:28.984Z,79.44
2017-04-28T02:02:09.870Z,78.83
2017-04-28T02:02:50.762Z,79.31
2017-04-28T02:03:31.693Z,79.12
2017-04-28T02:04:12.544Z,78.93
2017-04-28T02:04:53.414Z,79.22
2017-04-28T02:05:34.310Z,78.97
2017-04-28T02:06:15.171Z,78.17
2017-04-28T02:06:56.054Z,78.97
2017-04-28T02:07:36.944Z,79.16
2017-04-28T02:08:17.823Z,79.35
2017-04-28T02:08:58.684Z,79.31
2017-04-28T02:09:39.551Z,79.12
2017-04-28T02:10:20.412Z,78.74
2017-04-28T02:11:01.279Z,79.54
2017-04-28T02:11:42.158Z,79.6
2017-04-28T02:12:23.032Z,79.97
2017-04-28T02:13:03.894Z,79.54
2017-04-28T02:13:44.794Z,79.25
2017-04-28T02:14:25.658Z,79.35
2017-04-28T02:15:06.525Z,79.5
2017-04-28T02:15:47.382Z,79.79
2017-04-28T02:16:28.259Z,79.69
2017-04-28T02:17:09.131Z,79.5
2017-04-28T02:17:49.984Z,79.6
2017-04-28T02:18:30.877Z,79.73
2017-04-28T02:19:11.775Z,79.79
2017-04-28T02:19:52.634Z,79.69
2017-04-28T02:20:33.509Z,79.6
2017-04-28T02:21:14.356Z,79.41
2017-04-28T02:21:55.219Z,79.5
2017-04-28T02:22:36.107Z,79.69
2017-04-28T02:23:16.970Z,79.6
2017-04-28T02:23:57.844Z,79.6
2017-04-28T02:24:38.743Z,79.22
2017-04-28T02:25:19.613Z,79.41
2017-04-28T02:26:00.466Z,79.83
2017-04-28T02:26:41.310Z,79.79
2017-04-28T02:27:22.195Z,79.5
2017-04-28T02:28:03.068Z,79.69
2017-04-28T02:28:43.946Z,79.6
2017-04-28T02:29:24.816Z,79.5
2017-04-28T02:30:05.715Z,79.6
2017-04-28T02:30:46.580Z,79.41
2017-04-28T02:31:27.459Z,79.6
2017-04-28T02:32:08.326Z,79.83
2017-04-28T02:32:49.203Z,79.41
2017-04-28T02:33:30.070Z,80.07
2017-04-28T02:34:10.946Z,80.64
2017-04-28T02:34:51.811Z,80.45
2017-04-28T02:35:32.678Z,80.07
2017-04-28T02:36:13.515Z,79.5
2017-04-28T02:36:54.371Z,79.5
2017-04-28T02:37:35.247Z,80.07
2017-04-28T02:38:16.140Z,79.97
2017-04-28T02:38:57.006Z,80.16
2017-04-28T02:39:37.897Z,80.07
2017-04-28T02:40:18.769Z,80.16
2017-04-28T02:40:59.643Z,79.83
2017-04-28T02:41:40.512Z,80.16
2017-04-28T02:42:21.385Z,80.64
2017-04-28T02:43:02.261Z,80.64
2017-04-28T02:43:43.176Z,81.02
2017-04-28T02:44:24.039Z,80.74
2017-04-28T02:45:04.897Z,80.83
2017-04-28T02:45:45.752Z,81.12
2017-04-28T02:46:26.618Z,81.49
2017-04-28T02:47:07.500Z,81.87
2017-04-28T02:47:48.369Z,81.3
2017-04-28T02:48:29.249Z,81.78
2017-04-28T02:49:10.137Z,81.49
2017-04-28T02:49:51.016Z,81.59
2017-04-28T02:50:31.903Z,81.68
2017-04-28T02:51:12.804Z,81.68
2017-04-28T02:51:53.666Z,81.3
2017-04-28T02:52:34.536Z,81.78
2017-04-28T02:53:15.393Z,81.3
2017-04-28T02:53:56.249Z,81.87
2017-04-28T02:54:37.132Z,81.87
2017-04-28T02:55:17.962Z,81.59
2017-04-28T02:55:58.828Z,81.68
2017-04-28T02:56:39.691Z,81.59
2017-04-28T02:57:20.568Z,81.68
2017-04-28T02:58:01.474Z,81.68
2017-04-28T02:58:42.382Z,81.87
2017-04-28T02:59:23.214Z,81.97
2017-04-28T03:00:04.091Z,81.78
2017-04-28T03:00:44.965Z,81.97
2017-04-28T03:01:25.847Z,81.97
2017-04-28T03:02:06.731Z,82.07
2017-04-28T03:02:47.604Z,82.45
2017-04-28T03:03:28.464Z,82.26
2017-04-28T03:04:09.361Z,82.54
2017-04-28T03:04:50.250Z,82.26
2017-04-28T03:05:31.135Z,82.35
2017-04-28T03:06:11.996Z,82.16
2017-04-28T03:06:52.864Z,83.11
2017-04-28T03:07:33.736Z,83.01
2017-04-28T03:08:14.610Z,83.01
2017-04-28T03:08:55.494Z,83.01
2017-04-28T03:09:36.376Z,82.54
2017-04-28T03:10:17.241Z,82.07
2017-04-28T03:10:58.132Z,82.35
2017-04-28T03:11:39.005Z,82.54
2017-04-28T03:12:19.902Z,82.45
2017-04-28T03:13:00.770Z,82.54
2017-04-28T03:13:41.649Z,82.26
2017-04-28T03:14:22.515Z,82.26
2017-04-28T03:15:03.394Z,82.35
2017-04-28T03:15:44.262Z,82.5
2017-04-28T03:16:25.145Z,83.73
2017-04-28T03:17:06.025Z,83.92
2017-04-28T03:17:46.908Z,83.39
2017-04-28T03:18:27.793Z,83.64
2017-04-28T03:19:08.681Z,83.36
2017-04-28T03:19:49.566Z,83.87
2017-04-28T03:20:30.442Z,83.39
2017-04-28T03:21:11.325Z,83.45
2017-04-28T03:21:52.242Z,83.87
2017-04-28T03:22:33.115Z,83.49
2017-04-28T03:23:14.003Z,83.54
2017-04-28T03:23:54.874Z,83.39
2017-04-28T03:24:35.771Z,84.21
2017-04-28T03:25:16.624Z,84.97
2017-04-28T03:25:57.543Z,84.68
2017-04-28T03:26:38.478Z,85.25
2017-04-28T03:27:19.338Z,84.68
2017-04-28T03:28:00.209Z,84.3
2017-04-28T03:28:41.085Z,84.59
2017-04-28T03:29:21.947Z,84.87
2017-04-28T03:30:02.843Z,85.06
2017-04-28T03:30:43.692Z,84.78
2017-04-28T03:31:24.557Z,84.78
2017-04-28T03:32:05.456Z,83.73
2017-04-28T03:32:46.347Z,83.92
2017-04-28T03:33:27.226Z,84.4
2017-04-28T03:34:08.101Z,84.3
2017-04-28T03:34:48.978Z,84.87
2017-04-28T03:35:29.854Z,84.3
2017-04-28T03:36:10.735Z,84.01
2017-04-28T03:36:51.624Z,84.68
2017-04-28T03:37:32.499Z,85.25
2017-04-28T03:38:13.375Z,84.97
2017-04-28T03:38:54.240Z,85.44
2017-04-28T03:39:35.129Z,85.35
2017-04-28T03:40:16.000Z,84.97
2017-04-28T03:40:56.876Z,84.78
2017-04-28T03:41:37.736Z,85.06
2017-04-28T03:42:18.601Z,84.97
2017-04-28T03:42:59.453Z,85.25
2017-04-28T03:43:40.325Z,85.35
2017-04-28T03:44:21.192Z,85.35
2017-04-28T03:45:02.077Z,86.3
2017-04-28T03:45:42.951Z,86.2
2017-04-28T03:46:23.866Z,86.49
2017-04-28T03:47:04.744Z,86.01
2017-04-28T03:47:45.628Z,85.72
2017-04-28T03:48:26.508Z,85.53
2017-04-28T03:49:07.389Z,86.11
2017-04-28T03:49:48.264Z,86.11
2017-04-28T03:50:29.134Z,86.11
2017-04-28T03:51:10.014Z,86.2
2017-04-28T03:51:50.897Z,85.72
2017-04-28T03:52:31.762Z,86.3
2017-04-28T03:53:12.628Z,86.2
2017-04-28T03:53:53.516Z,86.11
2017-04-28T03:54:34.367Z,86.49
2017-04-28T03:55:15.255Z,85.53
2017-04-28T03:55:56.141Z,85.16
2017-04-28T03:56:37.016Z,85.25
2017-04-28T03:57:17.890Z,85.35
2017-04-28T03:57:58.779Z,85.44
2017-04-28T03:58:39.654Z,85.91
2017-04-28T03:59:20.524Z,85.53
2017-04-28T04:00:01.399Z,84.97
2017-04-28T04:00:42.273Z,85.72
2017-04-28T04:01:23.140Z,86.39
2017-04-28T04:02:04.010Z,86.11
2017-04-28T04:02:44.893Z,86.3
2017-04-28T04:03:25.766Z,86.49
2017-04-28T04:04:06.637Z,85.91
2017-04-28T04:04:47.513Z,85.82
2017-04-28T04:05:28.369Z,85.72
2017-04-28T04:06:09.235Z,86.39
2017-04-28T04:06:50.127Z,86.2
2017-04-28T04:07:31.010Z,86.11
2017-04-28T04:08:11.880Z,86.3
2017-04-28T04:10:05.468Z,87.3
2017-04-28T04:10:46.329Z,86.87
2017-04-28T04:11:27.207Z,86.58
2017-04-28T04:12:08.120Z,86.87
2017-04-28T04:12:48.953Z,86.68
2017-04-28T04:13:29.839Z,87.53
2017-04-28T04:14:10.690Z,87.15
2017-04-28T04:14:51.555Z,87.01
2017-04-28T04:15:32.438Z,87.11
2017-04-28T04:16:13.314Z,87.39
2017-04-28T04:16:54.189Z,87.24
2017-04-28T04:17:35.054Z,87.15
2017-04-28T04:18:15.916Z,87.34
2017-04-28T04:18:56.797Z,87.43
2017-04-28T04:19:37.665Z,86.39
2017-04-28T04:20:18.539Z,86.11
2017-04-28T04:20:59.392Z,86.39
2017-04-28T04:21:40.248Z,86.3
2017-04-28T04:22:21.106Z,86.77
2017-04-28T04:23:01.990Z,86.87
2017-04-28T04:23:42.878Z,87.34
2017-04-28T04:24:23.807Z,87.15
2017-04-28T04:25:04.672Z,86.58
2017-04-28T04:25:45.520Z,87.15
2017-04-28T04:26:26.396Z,87.43
2017-04-28T04:27:07.290Z,87.72
2017-04-28T04:27:48.153Z,87.77
2017-04-28T04:28:29.032Z,87.87
2017-04-28T04:29:09.920Z,87.96
2017-04-28T04:29:50.789Z,88.01
2017-04-28T04:30:31.663Z,88.15
2017-04-28T04:31:12.545Z,88.81
2017-04-28T04:31:53.405Z,88.15
2017-04-28T04:32:34.284Z,88.29
2017-04-28T04:33:15.191Z,87.82
2017-04-28T04:33:56.065Z,87.15
2017-04-28T04:34:36.900Z,87.24
2017-04-28T04:35:17.803Z,87.43
2017-04-28T04:35:58.663Z,88.15
2017-04-28T04:36:39.526Z,88.29
2017-04-28T04:37:20.436Z,87.53
2017-04-28T04:38:01.317Z,87.24
2017-04-28T04:38:42.215Z,87.34
2017-04-28T04:39:23.086Z,88.39
2017-04-28T04:40:04.028Z,88.01
2017-04-28T04:40:44.907Z,87.15
2017-04-28T04:41:25.778Z,87.34
2017-04-28T04:42:06.642Z,87.34
2017-04-28T04:42:47.505Z,87.82
2017-04-28T04:43:28.378Z,87.91
2017-04-28T04:44:09.292Z,87.62
2017-04-28T04:44:50.162Z,87.34
2017-04-28T04:45:31.059Z,86.96
2017-04-28T04:46:11.918Z,87.24
2017-04-28T04:46:52.770Z,87.34
2017-04-28T04:47:33.652Z,87.34
2017-04-28T04:48:14.519Z,87.91
2017-04-28T04:48:55.388Z,87.15
2017-04-28T04:49:36.238Z,87.24
2017-04-28T04:50:17.120Z,86.58
2017-04-28T04:50:57.983Z,86.77
2017-04-28T04:51:38.841Z,86.77
2017-04-28T04:52:19.712Z,86.3
2017-04-28T04:53:00.585Z,86.49
2017-04-28T04:53:41.468Z,86.11
2017-04-28T04:54:22.340Z,86.87
2017-04-28T04:55:03.206Z,87.15
2017-04-28T04:55:44.083Z,87.72
2017-04-28T04:56:24.983Z,87.82
2017-04-28T04:57:05.871Z,87.43
2017-04-28T04:57:46.730Z,87.15
2017-04-28T04:58:27.593Z,87.82
2017-04-28T04:59:08.452Z,87.43
2017-04-28T04:59:49.327Z,87.62
2017-04-28T05:00:30.222Z,87.72
2017-04-28T05:01:11.672Z,87.82
2017-04-28T05:01:52.550Z,87.43
2017-04-28T05:02:33.429Z,87.62
2017-04-28T05:03:14.296Z,87.34
2017-04-28T05:03:55.164Z,87.34
2017-04-28T05:04:36.030Z,86.87
2017-04-28T05:05:16.903Z,86.77
2017-04-28T05:05:57.823Z,86.49
2017-04-28T05:06:38.685Z,86.11
2017-04-28T05:07:19.558Z,86.58
2017-04-28T05:08:02.194Z,86.39
2017-04-28T05:08:43.072Z,85.25
2017-04-28T05:09:23.964Z,85.25
2017-04-28T05:10:04.836Z,85.72
2017-04-28T05:10:45.735Z,85.06
2017-04-28T05:11:26.625Z,85.44
2017-04-28T05:12:07.503Z,85.25
2017-04-28T05:12:49.177Z,84.78
2017-04-28T05:13:30.047Z,85.16
2017-04-28T05:14:10.913Z,84.87
2017-04-28T05:14:51.791Z,85.25
2017-04-28T05:15:32.676Z,84.97
2017-04-28T05:16:13.518Z,84.78
2017-04-28T05:16:54.405Z,85.06
2017-04-28T05:17:35.285Z,85.16
2017-04-28T05:18:16.153Z,85.06
2017-04-28T05:18:57.019Z,84.68
2017-04-28T05:19:37.896Z,84.3
2017-04-28T05:20:18.782Z,83.92
2017-04-28T05:20:59.652Z,83.54
2017-04-28T05:21:40.533Z,84.11
2017-04-28T05:22:21.453Z,83.92
2017-04-28T05:23:02.333Z,83.36
2017-04-28T05:23:43.194Z,83.64
2017-04-28T05:24:24.063Z,83.54
2017-04-28T05:25:04.941Z,83.16
2017-04-28T05:25:45.786Z,82.88
2017-04-28T05:26:26.653Z,83.11
2017-04-28T05:27:07.519Z,83.01
2017-04-28T05:27:48.393Z,83.64
2017-04-28T05:28:29.263Z,83.49
2017-04-28T05:29:10.149Z,83.64
2017-04-28T05:29:51.038Z,83.54
2017-04-28T05:30:31.922Z,83.68
2017-04-28T05:31:12.862Z,83.3
2017-04-28T05:31:53.744Z,83.26
2017-04-28T05:32:34.641Z,83.59
2017-04-28T05:33:15.509Z,83.54
2017-04-28T05:33:56.414Z,83.39
2017-04-28T05:34:37.406Z,83.49
2017-04-28T05:35:18.288Z,83.68
2017-04-28T05:35:59.162Z,83.59
2017-04-28T05:36:40.049Z,83.97
2017-04-28T05:37:20.893Z,84.06
2017-04-28T05:38:01.777Z,83.49
2017-04-28T05:38:42.657Z,83.39
2017-04-28T05:39:23.518Z,83.01
2017-04-28T05:40:04.375Z,82.73
2017-04-28T05:40:45.254Z,82.82
2017-04-28T05:41:26.121Z,82.73
2017-04-28T05:42:06.982Z,82.35
2017-04-28T05:42:47.850Z,81.97
2017-04-28T05:43:28.719Z,81.49
2017-04-28T05:44:09.594Z,81.12
2017-04-28T05:44:50.477Z,80.55
2017-04-28T05:45:31.363Z,80.64
2017-04-28T05:46:12.247Z,80.35
2017-04-28T05:46:54.840Z,79.97
2017-04-28T05:47:35.694Z,79.6
2017-04-28T05:48:16.556Z,79.41
2017-04-28T05:48:57.483Z,78.93
2017-04-28T05:49:38.389Z,78.55
2017-04-28T05:50:19.298Z,77.89
2017-04-28T05:53:30.515Z,76.93
2017-04-28T05:54:11.390Z,76.75
2017-04-28T05:54:52.271Z,76.37
2017-04-28T05:55:33.154Z,76.27
2017-04-28T05:56:14.036Z,76.12
2017-04-28T05:56:54.922Z,76.03
2017-04-28T05:57:35.798Z,76.12
2017-04-28T05:58:16.686Z,76.31
2017-04-28T05:58:57.578Z,76.69
2017-04-28T05:59:38.431Z,76.12
2017-04-28T06:00:19.305Z,75.74
2017-04-28T06:01:00.201Z,75.93
2017-04-28T06:01:41.146Z,75.64
2017-04-28T06:02:22.026Z,75.74
2017-04-28T06:03:02.912Z,75.84
2017-04-28T06:03:43.785Z,74.98
2017-04-28T06:04:24.663Z,74.88
2017-04-28T06:05:05.547Z,74.31
2017-04-28T06:05:46.449Z,74.12
2017-04-28T06:06:27.310Z,74.22
2017-04-28T06:07:08.193Z,74.12
2017-04-28T06:07:49.083Z,73.93
2017-04-28T06:08:29.972Z,74.03
2017-04-28T06:09:10.854Z,73.65
2017-04-28T06:09:51.717Z,73.46
2017-04-28T06:10:32.588Z,72.79
2017-04-28T06:11:13.479Z,71.88
2017-04-28T06:11:54.348Z,70.64
2017-04-28T06:12:35.223Z,69.6
2017-04-28T06:13:16.112Z,69.12
2017-04-28T06:13:57.012Z,69.12
2017-04-28T06:14:37.898Z,68.65
2017-04-28T06:15:18.777Z,68.74
2017-04-28T06:15:59.646Z,67.69
2017-04-28T06:16:40.536Z,67.79
2017-04-28T06:17:21.406Z,66.94
2017-04-28T06:18:02.303Z,66.74
2017-04-28T06:18:43.187Z,66.94
2017-04-28T06:19:24.066Z,66.08
2017-04-28T06:20:04.935Z,65.8
2017-04-28T06:20:45.814Z,65.6
2017-04-28T06:21:26.693Z,65.22
2017-04-28T06:22:07.581Z,65.7
2017-04-28T06:22:48.468Z,65.13
2017-04-28T06:23:29.355Z,65.22
2017-04-28T06:24:10.223Z,65.8
2017-04-28T06:24:51.098Z,65.32
2017-04-28T06:25:31.974Z,65.22
2017-04-28T06:26:12.850Z,65.89
2017-04-28T06:26:53.730Z,65.13
2017-04-28T06:27:34.617Z,65.8
2017-04-28T06:28:15.497Z,65.54
2017-04-28T06:28:56.370Z,65.25
2017-04-28T06:29:37.244Z,65.41
2017-04-28T06:30:18.129Z,65.35
2017-04-28T06:30:59.012Z,65.64
2017-04-28T06:31:39.892Z,65.25
2017-04-28T06:32:20.778Z,65.45
2017-04-28T06:33:01.663Z,65.25
2017-04-28T06:33:42.546Z,65.25
2017-04-28T06:34:23.434Z,65.25
2017-04-28T06:35:04.322Z,65.64
2017-04-28T06:35:45.197Z,65.35
2017-04-28T06:36:26.082Z,64.59
2017-04-28T06:37:06.962Z,63.26
2017-04-28T06:37:47.854Z,62.97
2017-04-28T06:38:28.729Z,62.78
2017-04-28T06:39:09.609Z,62.4
2017-04-28T06:39:50.500Z,62.4
2017-04-28T06:40:31.428Z,62.59
2017-04-28T06:41:12.298Z,62.4
2017-04-28T06:41:53.180Z,62.21
2017-04-28T06:42:34.062Z,62.12
2017-04-28T06:43:14.942Z,62.21
2017-04-28T06:43:55.825Z,61.77
2017-04-28T06:44:36.709Z,61.96
2017-04-28T06:45:17.576Z,61.58
2017-04-28T06:45:58.462Z,62.34
2017-04-28T06:46:39.318Z,62.15
2017-04-28T06:47:20.216Z,61.96
2017-04-28T06:48:01.103Z,60.66
2017-04-28T06:48:41.972Z,59.61
2017-04-28T06:49:22.862Z,58.87
2017-04-28T06:50:03.727Z,56.71
2017-04-28T06:50:44.611Z,55.79
2017-04-28T06:51:25.491Z,55.21
2017-04-28T06:52:06.374Z,54.64
2017-04-28T06:52:47.301Z,54.64
2017-04-28T06:53:28.197Z,54.8
2017-04-28T06:54:09.077Z,55.73
2017-04-28T06:54:49.966Z,55.92
2017-04-28T06:55:30.852Z,56.97
2017-04-28T06:56:11.726Z,57.16
2017-04-28T06:56:52.579Z,56.71
2017-04-28T06:57:33.464Z,55.28
2017-04-28T06:58:14.351Z,54.45
2017-04-28T06:58:55.238Z,54.07
2017-04-28T06:59:36.112Z,52.76
2017-04-28T07:00:17.002Z,50.98
2017-04-28T07:00:57.861Z,50.88
2017-04-28T07:01:38.716Z,50.04
2017-04-28T07:02:19.576Z,49.38
2017-04-28T07:03:00.461Z,49.57
2017-04-28T07:03:41.349Z,48.99
2017-04-28T07:04:22.227Z,48.07
2017-04-28T07:05:03.126Z,47.94
2017-04-28T07:05:43.982Z,48.07
2017-04-28T07:06:24.851Z,47.39
2017-04-28T07:07:05.760Z,47.01
2017-04-28T07:07:46.646Z,46.51
2017-04-28T07:08:27.537Z,47.11
2017-04-28T07:09:08.419Z,46.27
2017-04-28T07:09:49.299Z,46.37
2017-04-28T07:10:30.188Z,45.89
2017-04-28T07:11:11.091Z,45.79
2017-04-28T07:11:51.971Z,45.79
2017-04-28T07:12:32.858Z,45.87
2017-04-28T07:13:13.744Z,46.63
2017-04-28T07:13:54.632Z,46.92
2017-04-28T07:14:35.507Z,47.11
2017-04-28T07:15:16.428Z,46.53
2017-04-28T07:15:57.318Z,46.53
2017-04-28T07:16:38.212Z,46.53
2017-04-28T07:17:19.112Z,45.77
2017-04-28T07:18:00.015Z,45.1
2017-04-28T07:18:40.897Z,45.01
2017-04-28T07:19:21.799Z,45.29
2017-04-28T07:20:02.700Z,45.65
2017-04-28T07:20:43.589Z,46.99
2017-04-28T07:21:24.479Z,47.37
2017-04-28T07:22:05.374Z,47.47
2017-04-28T07:22:46.259Z,47.08
2017-04-28T07:23:27.156Z,46.72
2017-04-28T07:24:08.048Z,46.72
2017-04-28T07:24:48.947Z,45.96
2017-04-28T07:25:29.835Z,45.67
2017-04-28T07:26:10.717Z,45.87
2017-04-28T07:26:51.581Z,45.77
2017-04-28T07:27:32.465Z,45.01
2017-04-28T07:28:13.358Z,45.31
2017-04-28T07:28:54.253Z,45.51
2017-04-28T07:29:35.145Z,45.12
2017-04-28T07:30:16.038Z,45.41
2017-04-28T07:30:56.915Z,45.12
2017-04-28T07:31:37.793Z,44.65
2017-04-28T07:32:18.699Z,44.45
2017-04-28T07:32:59.601Z,44.36
2017-04-28T07:33:40.496Z,43.69
2017-04-28T07:34:21.400Z,43.21
2017-04-28T07:35:02.299Z,43.43
2017-04-28T07:35:43.197Z,43.4
2017-04-28T07:36:24.134Z,42.76
2017-04-28T07:37:05.030Z,41.7
2017-04-28T07:37:45.945Z,41.41
2017-04-28T07:38:26.856Z,42.64
2017-04-28T07:39:07.755Z,42.35
2017-04-28T07:39:48.653Z,41.01
2017-04-28T07:40:29.545Z,40.94
2017-04-28T07:41:10.436Z,41.2
2017-04-28T07:41:51.336Z,41.89
2017-04-28T07:42:32.230Z,41.61
2017-04-28T07:43:13.118Z,42.18
2017-04-28T07:43:54.020Z,42.93
2017-04-28T07:44:34.922Z,43.4
2017-04-28T07:45:15.827Z,42.85
2017-04-28T07:45:56.717Z,42.66
2017-04-28T07:46:37.612Z,42.01
2017-04-28T07:47:18.515Z,41.51
2017-04-28T07:47:59.409Z,41.53
2017-04-28T07:48:40.311Z,41.72
2017-04-28T07:49:21.213Z,41.91
2017-04-28T07:50:02.150Z,41.82
2017-04-28T07:50:43.059Z,41.24
2017-04-28T07:51:23.964Z,40.84
2017-04-28T07:52:04.861Z,40.55
2017-04-28T07:52:45.764Z,40.94
2017-04-28T07:53:26.666Z,41.05
2017-04-28T07:54:07.549Z,40.86
2017-04-28T07:54:48.443Z,40.86
2017-04-28T07:55:29.340Z,40.58
2017-04-28T07:56:10.232Z,39.81
2017-04-28T07:56:51.156Z,39.33
2017-04-28T07:57:32.049Z,38.95
2017-04-28T07:58:12.955Z,38.37
2017-04-28T07:58:53.862Z,38.3
2017-04-28T07:59:34.777Z,38.85
2017-04-28T08:00:15.661Z,38.66
2017-04-28T08:00:56.562Z,38.95
2017-04-28T08:01:37.465Z,39.14
2017-04-28T08:02:18.361Z,39.62
2017-04-28T08:02:59.272Z,39.9
2017-04-28T08:03:40.181Z,39.52
2017-04-28T08:04:21.082Z,38.96
2017-04-28T08:05:01.981Z,37.61
2017-04-28T08:05:42.876Z,37.34
2017-04-28T08:06:23.781Z,37.51
2017-04-28T08:07:04.679Z,37.51
2017-04-28T08:07:45.583Z,38.09
2017-04-28T08:08:26.473Z,38.2
2017-04-28T08:09:07.374Z,38.2
2017-04-28T08:09:48.281Z,37.82
2017-04-28T08:10:29.191Z,37.53
2017-04-28T08:11:10.098Z,37.43
2017-04-28T08:11:50.993Z,37.05
2017-04-28T08:12:31.898Z,36.69
2017-04-28T08:13:12.790Z,36.69
2017-04-28T08:13:53.688Z,35.25
2017-04-28T08:14:34.593Z,34.58
2017-04-28T08:15:15.477Z,34
2017-04-28T08:15:56.383Z,33.91
2017-04-28T08:16:37.278Z,34.67
2017-04-28T08:17:18.164Z,34.1
2017-04-28T08:17:59.076Z,33.91
2017-04-28T08:18:39.967Z,33.81
2017-04-28T08:19:20.881Z,34.29
2017-04-28T08:20:01.809Z,34.47
2017-04-28T08:20:42.704Z,35.04
2017-04-28T08:21:23.603Z,35.41
2017-04-28T08:22:04.489Z,36.75
2017-04-28T08:22:45.394Z,37.32
2017-04-28T08:23:26.315Z,37.78
2017-04-28T08:24:07.217Z,38.26
2017-04-28T08:24:48.103Z,38.54
2017-04-28T08:25:28.995Z,39.03
2017-04-28T08:26:09.885Z,38.83
2017-04-28T08:26:50.784Z,38.83
2017-04-28T08:27:31.659Z,38.35
2017-04-28T08:28:12.562Z,37.88
2017-04-28T08:28:53.436Z,38.54
2017-04-28T08:29:34.305Z,38.05
2017-04-28T08:30:15.192Z,38.14
2017-04-28T08:30:56.089Z,38.74
2017-04-28T08:31:36.980Z,38.74
2017-04-28T08:32:17.866Z,38.74
2017-04-28T08:32:58.757Z,38.93
2017-04-28T08:33:39.641Z,38.45
2017-04-28T08:34:20.523Z,38.17
2017-04-28T08:35:01.418Z,38.26
2017-04-28T08:35:42.302Z,38.91
2017-04-28T08:36:23.181Z,39.12
2017-04-28T08:37:04.054Z,38.83
2017-04-28T08:37:44.969Z,38.54
2017-04-28T08:38:25.824Z,38.14
2017-04-28T08:39:06.721Z,38.14
2017-04-28T08:39:47.612Z,37.95
2017-04-28T08:40:28.514Z,37.46
2017-04-28T08:41:09.398Z,37.84
2017-04-28T08:41:50.284Z,37.76
2017-04-28T08:42:31.173Z,37.66
2017-04-28T08:43:12.059Z,37.66
2017-04-28T08:43:52.948Z,37.48
2017-04-28T08:44:33.833Z,37.09
2017-04-28T08:45:14.748Z,37.28
2017-04-28T08:45:55.603Z,36.52
2017-04-28T08:46:36.492Z,36.43
2017-04-28T08:47:17.378Z,36.02
2017-04-28T08:47:58.263Z,36.31
2017-04-28T08:48:39.148Z,36.31
2017-04-28T08:49:20.032Z,36.96
2017-04-28T08:50:00.929Z,37.07
2017-04-28T08:50:41.814Z,37.73
2017-04-28T08:51:22.703Z,37.73
2017-04-28T08:52:03.593Z,38.1
2017-04-28T08:52:44.477Z,38.96
2017-04-28T08:53:25.380Z,39.64